sensor_id;sensor_type;location;lat;lon;timestamp;P1;durP1;ratioP1;P2;durP2;ratioP2
7719;SDS011;3902;49.474;8.616;2023-03-13T00:00:48;6.50;;;2.73;;
7719;SDS011;3902;49.474;8.616;2023-03-13T00:03:14;6.07;;;2.87;;
7719;SDS011;3902;49.474;8.616;2023-03-13T00:05:39;5.73;;;3.23;;
7719;SDS011;3902;49.474;8.616;2023-03-13T00:08:05;4.83;;;2.70;;
7719;SDS011;3902;49.474;8.616;2023-03-13T00:10:31;5.57;;;3.10;;
7719;SDS011;3902;49.474;8.616;2023-03-13T00:12:56;6.03;;;2.77;;
7719;SDS011;3902;49.474;8.616;2023-03-13T00:15:22;10.17;;;3.60;;
7719;SDS011;3902;49.474;8.616;2023-03-13T00:17:47;6.07;;;2.30;;
7719;SDS011;3902;49.474;8.616;2023-03-13T00:20:13;9.53;;;3.17;;
7719;SDS011;3902;49.474;8.616;2023-03-13T00:22:41;8.97;;;2.80;;
7719;SDS011;3902;49.474;8.616;2023-03-13T00:25:07;8.30;;;2.73;;
7719;SDS011;3902;49.474;8.616;2023-03-13T00:27:33;6.93;;;2.67;;
7719;SDS011;3902;49.474;8.616;2023-03-13T00:29:58;5.97;;;2.87;;
7719;SDS011;3902;49.474;8.616;2023-03-13T00:32:24;6.17;;;3.37;;
7719;SDS011;3902;49.474;8.616;2023-03-13T00:34:50;8.60;;;3.40;;
7719;SDS011;3902;49.474;8.616;2023-03-13T00:37:15;6.70;;;3.40;;
7719;SDS011;3902;49.474;8.616;2023-03-13T00:39:41;8.83;;;3.03;;
7719;SDS011;3902;49.474;8.616;2023-03-13T00:42:06;8.30;;;2.80;;
7719;SDS011;3902;49.474;8.616;2023-03-13T00:44:32;8.27;;;3.17;;
7719;SDS011;3902;49.474;8.616;2023-03-13T00:46:57;6.33;;;3.10;;
7719;SDS011;3902;49.474;8.616;2023-03-13T00:49:23;7.50;;;2.97;;
7719;SDS011;3902;49.474;8.616;2023-03-13T00:51:48;6.83;;;3.23;;
7719;SDS011;3902;49.474;8.616;2023-03-13T00:54:14;4.70;;;3.00;;
7719;SDS011;3902;49.474;8.616;2023-03-13T00:56:39;8.73;;;2.80;;
7719;SDS011;3902;49.474;8.616;2023-03-13T00:59:05;6.30;;;2.77;;
7719;SDS011;3902;49.474;8.616;2023-03-13T01:01:31;7.50;;;3.47;;
7719;SDS011;3902;49.474;8.616;2023-03-13T01:04:05;8.77;;;2.73;;
7719;SDS011;3902;49.474;8.616;2023-03-13T01:06:33;6.97;;;2.70;;
7719;SDS011;3902;49.474;8.616;2023-03-13T01:09:00;6.23;;;2.70;;
7719;SDS011;3902;49.474;8.616;2023-03-13T01:11:29;5.93;;;2.87;;
7719;SDS011;3902;49.474;8.616;2023-03-13T01:13:57;4.33;;;2.50;;
7719;SDS011;3902;49.474;8.616;2023-03-13T01:16:24;8.77;;;3.27;;
7719;SDS011;3902;49.474;8.616;2023-03-13T01:18:53;6.50;;;2.70;;
7719;SDS011;3902;49.474;8.616;2023-03-13T01:21:20;9.17;;;3.20;;
7719;SDS011;3902;49.474;8.616;2023-03-13T01:23:48;6.13;;;2.30;;
7719;SDS011;3902;49.474;8.616;2023-03-13T01:26:14;10.73;;;2.77;;
7719;SDS011;3902;49.474;8.616;2023-03-13T01:28:40;4.50;;;2.50;;
7719;SDS011;3902;49.474;8.616;2023-03-13T01:31:09;6.00;;;2.73;;
7719;SDS011;3902;49.474;8.616;2023-03-13T01:33:36;6.00;;;2.67;;
7719;SDS011;3902;49.474;8.616;2023-03-13T01:36:02;8.50;;;3.40;;
7719;SDS011;3902;49.474;8.616;2023-03-13T01:38:28;5.17;;;2.60;;
7719;SDS011;3902;49.474;8.616;2023-03-13T01:40:54;5.70;;;2.53;;
7719;SDS011;3902;49.474;8.616;2023-03-13T01:43:26;5.13;;;2.70;;
7719;SDS011;3902;49.474;8.616;2023-03-13T01:48:38;4.53;;;2.83;;
7719;SDS011;3902;49.474;8.616;2023-03-13T01:51:13;5.33;;;2.57;;
7719;SDS011;3902;49.474;8.616;2023-03-13T01:54:14;7.53;;;2.90;;
7719;SDS011;3902;49.474;8.616;2023-03-13T01:56:57;6.13;;;3.50;;
7719;SDS011;3902;49.474;8.616;2023-03-13T01:59:29;5.47;;;2.50;;
7719;SDS011;3902;49.474;8.616;2023-03-13T02:02:01;6.97;;;2.63;;
7719;SDS011;3902;49.474;8.616;2023-03-13T02:04:29;6.27;;;2.40;;
7719;SDS011;3902;49.474;8.616;2023-03-13T02:06:59;8.30;;;2.60;;
7719;SDS011;3902;49.474;8.616;2023-03-13T02:09:30;7.30;;;2.80;;
7719;SDS011;3902;49.474;8.616;2023-03-13T02:12:02;7.30;;;2.83;;
7719;SDS011;3902;49.474;8.616;2023-03-13T02:14:34;5.43;;;2.57;;
7719;SDS011;3902;49.474;8.616;2023-03-13T02:17:02;6.97;;;2.90;;
7719;SDS011;3902;49.474;8.616;2023-03-13T02:19:32;5.67;;;3.10;;
7719;SDS011;3902;49.474;8.616;2023-03-13T02:22:29;6.37;;;3.20;;
7719;SDS011;3902;49.474;8.616;2023-03-13T02:25:04;5.53;;;2.10;;
7719;SDS011;3902;49.474;8.616;2023-03-13T02:27:56;6.33;;;2.60;;
7719;SDS011;3902;49.474;8.616;2023-03-13T02:30:27;5.20;;;2.33;;
7719;SDS011;3902;49.474;8.616;2023-03-13T02:32:52;7.30;;;3.37;;
7719;SDS011;3902;49.474;8.616;2023-03-13T02:35:20;9.23;;;3.20;;
7719;SDS011;3902;49.474;8.616;2023-03-13T02:37:48;5.97;;;2.63;;
7719;SDS011;3902;49.474;8.616;2023-03-13T02:40:19;5.13;;;2.70;;
7719;SDS011;3902;49.474;8.616;2023-03-13T02:42:48;5.07;;;2.43;;
7719;SDS011;3902;49.474;8.616;2023-03-13T02:45:16;4.90;;;2.27;;
7719;SDS011;3902;49.474;8.616;2023-03-13T02:47:42;8.30;;;3.03;;
7719;SDS011;3902;49.474;8.616;2023-03-13T02:50:08;5.27;;;2.60;;
7719;SDS011;3902;49.474;8.616;2023-03-13T02:52:45;12.17;;;3.20;;
7719;SDS011;3902;49.474;8.616;2023-03-13T02:55:25;7.47;;;3.00;;
7719;SDS011;3902;49.474;8.616;2023-03-13T02:57:55;5.80;;;2.77;;
7719;SDS011;3902;49.474;8.616;2023-03-13T03:00:21;6.43;;;2.97;;
7719;SDS011;3902;49.474;8.616;2023-03-13T03:02:50;5.90;;;3.00;;
7719;SDS011;3902;49.474;8.616;2023-03-13T03:05:18;7.23;;;2.93;;
7719;SDS011;3902;49.474;8.616;2023-03-13T03:07:44;6.93;;;2.87;;
7719;SDS011;3902;49.474;8.616;2023-03-13T03:10:10;4.50;;;2.10;;
7719;SDS011;3902;49.474;8.616;2023-03-13T03:12:35;4.30;;;2.30;;
7719;SDS011;3902;49.474;8.616;2023-03-13T03:15:01;7.43;;;3.03;;
7719;SDS011;3902;49.474;8.616;2023-03-13T03:17:28;3.40;;;2.00;;
7719;SDS011;3902;49.474;8.616;2023-03-13T03:19:54;6.00;;;2.53;;
7719;SDS011;3902;49.474;8.616;2023-03-13T03:22:20;5.97;;;2.37;;
7719;SDS011;3902;49.474;8.616;2023-03-13T03:24:45;5.30;;;2.70;;
7719;SDS011;3902;49.474;8.616;2023-03-13T03:27:11;4.17;;;2.33;;
7719;SDS011;3902;49.474;8.616;2023-03-13T03:29:36;5.20;;;2.40;;
7719;SDS011;3902;49.474;8.616;2023-03-13T03:32:02;6.40;;;2.30;;
7719;SDS011;3902;49.474;8.616;2023-03-13T03:34:27;2.87;;;2.10;;
7719;SDS011;3902;49.474;8.616;2023-03-13T03:36:53;4.20;;;1.90;;
7719;SDS011;3902;49.474;8.616;2023-03-13T03:39:18;4.87;;;2.30;;
7719;SDS011;3902;49.474;8.616;2023-03-13T03:41:44;7.63;;;2.80;;
7719;SDS011;3902;49.474;8.616;2023-03-13T03:44:09;9.60;;;3.10;;
7719;SDS011;3902;49.474;8.616;2023-03-13T03:46:35;5.20;;;2.47;;
7719;SDS011;3902;49.474;8.616;2023-03-13T03:49:00;5.97;;;2.27;;
7719;SDS011;3902;49.474;8.616;2023-03-13T03:51:26;3.20;;;2.20;;
7719;SDS011;3902;49.474;8.616;2023-03-13T03:53:51;4.53;;;2.33;;
7719;SDS011;3902;49.474;8.616;2023-03-13T03:56:18;4.87;;;2.10;;
7719;SDS011;3902;49.474;8.616;2023-03-13T03:58:44;2.60;;;1.60;;
7719;SDS011;3902;49.474;8.616;2023-03-13T04:01:09;5.50;;;2.80;;
7719;SDS011;3902;49.474;8.616;2023-03-13T04:03:35;5.23;;;2.20;;
7719;SDS011;3902;49.474;8.616;2023-03-13T04:06:00;6.83;;;2.40;;
7719;SDS011;3902;49.474;8.616;2023-03-13T04:08:26;2.97;;;2.00;;
7719;SDS011;3902;49.474;8.616;2023-03-13T04:10:51;5.67;;;2.03;;
7719;SDS011;3902;49.474;8.616;2023-03-13T04:13:17;5.10;;;2.53;;
7719;SDS011;3902;49.474;8.616;2023-03-13T04:15:43;3.73;;;1.80;;
7719;SDS011;3902;49.474;8.616;2023-03-13T04:18:08;7.30;;;2.60;;
7719;SDS011;3902;49.474;8.616;2023-03-13T04:20:34;6.10;;;1.90;;
7719;SDS011;3902;49.474;8.616;2023-03-13T04:23:00;3.13;;;1.70;;
7719;SDS011;3902;49.474;8.616;2023-03-13T04:25:26;3.50;;;2.00;;
7719;SDS011;3902;49.474;8.616;2023-03-13T04:27:51;4.33;;;1.60;;
7719;SDS011;3902;49.474;8.616;2023-03-13T04:30:17;4.43;;;2.17;;
7719;SDS011;3902;49.474;8.616;2023-03-13T04:32:42;5.27;;;2.17;;
7719;SDS011;3902;49.474;8.616;2023-03-13T04:35:08;4.10;;;2.07;;
7719;SDS011;3902;49.474;8.616;2023-03-13T04:37:34;2.90;;;1.60;;
7719;SDS011;3902;49.474;8.616;2023-03-13T04:39:59;3.13;;;1.77;;
7719;SDS011;3902;49.474;8.616;2023-03-13T04:42:25;4.23;;;1.60;;
7719;SDS011;3902;49.474;8.616;2023-03-13T04:44:51;3.03;;;1.80;;
7719;SDS011;3902;49.474;8.616;2023-03-13T04:47:17;4.40;;;2.00;;
7719;SDS011;3902;49.474;8.616;2023-03-13T04:49:43;6.43;;;2.27;;
7719;SDS011;3902;49.474;8.616;2023-03-13T04:52:08;2.70;;;1.57;;
7719;SDS011;3902;49.474;8.616;2023-03-13T04:54:34;4.70;;;1.70;;
7719;SDS011;3902;49.474;8.616;2023-03-13T04:57:00;4.83;;;1.90;;
7719;SDS011;3902;49.474;8.616;2023-03-13T04:59:25;2.80;;;1.77;;
7719;SDS011;3902;49.474;8.616;2023-03-13T05:01:50;2.20;;;1.50;;
7719;SDS011;3902;49.474;8.616;2023-03-13T05:04:16;2.90;;;1.60;;
7719;SDS011;3902;49.474;8.616;2023-03-13T05:06:41;2.83;;;1.67;;
7719;SDS011;3902;49.474;8.616;2023-03-13T05:09:07;2.50;;;1.50;;
7719;SDS011;3902;49.474;8.616;2023-03-13T05:11:32;3.03;;;1.50;;
7719;SDS011;3902;49.474;8.616;2023-03-13T05:13:58;2.20;;;1.70;;
7719;SDS011;3902;49.474;8.616;2023-03-13T05:16:24;2.40;;;1.60;;
7719;SDS011;3902;49.474;8.616;2023-03-13T05:18:49;4.13;;;1.93;;
7719;SDS011;3902;49.474;8.616;2023-03-13T05:21:15;1.70;;;1.43;;
7719;SDS011;3902;49.474;8.616;2023-03-13T05:23:40;2.70;;;1.67;;
7719;SDS011;3902;49.474;8.616;2023-03-13T05:26:06;4.77;;;1.83;;
7719;SDS011;3902;49.474;8.616;2023-03-13T05:28:31;4.03;;;1.70;;
7719;SDS011;3902;49.474;8.616;2023-03-13T05:30:57;2.83;;;1.30;;
7719;SDS011;3902;49.474;8.616;2023-03-13T05:33:22;2.00;;;1.43;;
7719;SDS011;3902;49.474;8.616;2023-03-13T05:35:48;2.70;;;1.40;;
7719;SDS011;3902;49.474;8.616;2023-03-13T05:38:14;2.93;;;1.40;;
7719;SDS011;3902;49.474;8.616;2023-03-13T05:40:39;4.47;;;1.93;;
7719;SDS011;3902;49.474;8.616;2023-03-13T05:43:05;7.17;;;2.17;;
7719;SDS011;3902;49.474;8.616;2023-03-13T05:45:30;3.57;;;1.57;;
7719;SDS011;3902;49.474;8.616;2023-03-13T05:47:56;2.90;;;1.70;;
7719;SDS011;3902;49.474;8.616;2023-03-13T05:50:23;5.13;;;1.60;;
7719;SDS011;3902;49.474;8.616;2023-03-13T05:52:48;2.70;;;1.57;;
7719;SDS011;3902;49.474;8.616;2023-03-13T05:55:14;1.77;;;1.40;;
7719;SDS011;3902;49.474;8.616;2023-03-13T05:57:43;3.60;;;1.40;;
7719;SDS011;3902;49.474;8.616;2023-03-13T06:00:13;3.43;;;1.43;;
7719;SDS011;3902;49.474;8.616;2023-03-13T06:02:39;3.40;;;1.50;;
7719;SDS011;3902;49.474;8.616;2023-03-13T06:05:06;1.63;;;1.30;;
7719;SDS011;3902;49.474;8.616;2023-03-13T06:07:32;4.80;;;1.97;;
7719;SDS011;3902;49.474;8.616;2023-03-13T06:09:57;3.03;;;1.70;;
7719;SDS011;3902;49.474;8.616;2023-03-13T06:12:23;2.40;;;1.53;;
7719;SDS011;3902;49.474;8.616;2023-03-13T06:14:48;4.07;;;1.50;;
7719;SDS011;3902;49.474;8.616;2023-03-13T06:17:14;2.60;;;1.60;;
7719;SDS011;3902;49.474;8.616;2023-03-13T06:19:39;2.30;;;1.40;;
7719;SDS011;3902;49.474;8.616;2023-03-13T06:22:05;1.97;;;1.50;;
7719;SDS011;3902;49.474;8.616;2023-03-13T06:24:31;2.33;;;1.83;;
7719;SDS011;3902;49.474;8.616;2023-03-13T06:26:56;2.53;;;1.40;;
7719;SDS011;3902;49.474;8.616;2023-03-13T06:29:22;2.47;;;1.80;;
7719;SDS011;3902;49.474;8.616;2023-03-13T06:31:48;2.90;;;1.60;;
7719;SDS011;3902;49.474;8.616;2023-03-13T06:34:14;2.53;;;1.37;;
7719;SDS011;3902;49.474;8.616;2023-03-13T06:36:40;1.80;;;1.53;;
7719;SDS011;3902;49.474;8.616;2023-03-13T06:39:06;2.40;;;1.60;;
7719;SDS011;3902;49.474;8.616;2023-03-13T06:41:32;1.57;;;1.37;;
7719;SDS011;3902;49.474;8.616;2023-03-13T06:43:57;3.13;;;1.53;;
7719;SDS011;3902;49.474;8.616;2023-03-13T06:46:23;3.10;;;1.63;;
7719;SDS011;3902;49.474;8.616;2023-03-13T06:48:49;2.00;;;1.50;;
7719;SDS011;3902;49.474;8.616;2023-03-13T06:51:17;2.77;;;1.40;;
7719;SDS011;3902;49.474;8.616;2023-03-13T06:53:44;2.30;;;1.23;;
7719;SDS011;3902;49.474;8.616;2023-03-13T06:56:11;1.80;;;1.37;;
7719;SDS011;3902;49.474;8.616;2023-03-13T06:58:36;3.27;;;1.47;;
7719;SDS011;3902;49.474;8.616;2023-03-13T07:01:09;2.10;;;1.20;;
7719;SDS011;3902;49.474;8.616;2023-03-13T07:03:35;1.50;;;1.20;;
7719;SDS011;3902;49.474;8.616;2023-03-13T07:06:02;2.80;;;1.40;;
7719;SDS011;3902;49.474;8.616;2023-03-13T07:08:29;2.27;;;1.47;;
7719;SDS011;3902;49.474;8.616;2023-03-13T07:10:58;2.50;;;1.40;;
7719;SDS011;3902;49.474;8.616;2023-03-13T07:13:35;1.80;;;1.10;;
7719;SDS011;3902;49.474;8.616;2023-03-13T07:16:02;2.90;;;1.40;;
7719;SDS011;3902;49.474;8.616;2023-03-13T07:18:29;3.07;;;1.10;;
7719;SDS011;3902;49.474;8.616;2023-03-13T07:20:55;2.40;;;1.53;;
7719;SDS011;3902;49.474;8.616;2023-03-13T07:23:22;3.13;;;1.37;;
7719;SDS011;3902;49.474;8.616;2023-03-13T07:25:53;2.60;;;1.37;;
7719;SDS011;3902;49.474;8.616;2023-03-13T07:28:19;1.60;;;1.20;;
7719;SDS011;3902;49.474;8.616;2023-03-13T07:30:45;1.83;;;1.40;;
7719;SDS011;3902;49.474;8.616;2023-03-13T07:33:11;2.63;;;1.40;;
7719;SDS011;3902;49.474;8.616;2023-03-13T07:35:36;1.30;;;1.20;;
7719;SDS011;3902;49.474;8.616;2023-03-13T07:38:01;2.63;;;1.30;;
7719;SDS011;3902;49.474;8.616;2023-03-13T07:40:27;1.20;;;1.10;;
7719;SDS011;3902;49.474;8.616;2023-03-13T07:42:52;2.17;;;1.40;;
7719;SDS011;3902;49.474;8.616;2023-03-13T07:45:18;2.30;;;1.30;;
7719;SDS011;3902;49.474;8.616;2023-03-13T07:47:43;1.17;;;1.07;;
7719;SDS011;3902;49.474;8.616;2023-03-13T07:50:09;3.50;;;1.20;;
7719;SDS011;3902;49.474;8.616;2023-03-13T07:52:35;2.27;;;1.33;;
7719;SDS011;3902;49.474;8.616;2023-03-13T07:55:00;1.63;;;1.40;;
7719;SDS011;3902;49.474;8.616;2023-03-13T07:57:26;2.67;;;1.10;;
7719;SDS011;3902;49.474;8.616;2023-03-13T07:59:51;1.70;;;1.13;;
7719;SDS011;3902;49.474;8.616;2023-03-13T08:02:17;1.80;;;1.30;;
7719;SDS011;3902;49.474;8.616;2023-03-13T08:04:42;1.60;;;1.30;;
7719;SDS011;3902;49.474;8.616;2023-03-13T08:07:08;1.37;;;1.10;;
7719;SDS011;3902;49.474;8.616;2023-03-13T08:09:34;1.70;;;1.30;;
7719;SDS011;3902;49.474;8.616;2023-03-13T08:12:00;2.17;;;1.30;;
7719;SDS011;3902;49.474;8.616;2023-03-13T08:14:25;1.80;;;1.37;;
7719;SDS011;3902;49.474;8.616;2023-03-13T08:16:51;4.50;;;1.87;;
7719;SDS011;3902;49.474;8.616;2023-03-13T08:19:17;1.40;;;1.30;;
7719;SDS011;3902;49.474;8.616;2023-03-13T08:21:43;2.00;;;1.30;;
7719;SDS011;3902;49.474;8.616;2023-03-13T08:24:09;2.10;;;1.10;;
7719;SDS011;3902;49.474;8.616;2023-03-13T08:26:37;1.83;;;1.30;;
7719;SDS011;3902;49.474;8.616;2023-03-13T08:29:05;1.77;;;1.30;;
7719;SDS011;3902;49.474;8.616;2023-03-13T08:31:34;2.43;;;1.50;;
7719;SDS011;3902;49.474;8.616;2023-03-13T08:34:02;2.70;;;1.20;;
7719;SDS011;3902;49.474;8.616;2023-03-13T08:36:30;4.20;;;1.43;;
7719;SDS011;3902;49.474;8.616;2023-03-13T08:38:58;1.70;;;1.43;;
7719;SDS011;3902;49.474;8.616;2023-03-13T08:41:26;1.63;;;1.00;;
7719;SDS011;3902;49.474;8.616;2023-03-13T08:43:53;1.40;;;1.30;;
7719;SDS011;3902;49.474;8.616;2023-03-13T08:46:19;1.30;;;1.20;;
7719;SDS011;3902;49.474;8.616;2023-03-13T08:48:49;1.80;;;1.30;;
7719;SDS011;3902;49.474;8.616;2023-03-13T08:51:19;1.10;;;1.00;;
7719;SDS011;3902;49.474;8.616;2023-03-13T08:53:47;1.60;;;1.30;;
7719;SDS011;3902;49.474;8.616;2023-03-13T08:56:14;1.97;;;1.40;;
7719;SDS011;3902;49.474;8.616;2023-03-13T08:58:41;3.23;;;1.47;;
7719;SDS011;3902;49.474;8.616;2023-03-13T09:01:11;2.13;;;1.70;;
7719;SDS011;3902;49.474;8.616;2023-03-13T09:03:37;3.10;;;1.50;;
7719;SDS011;3902;49.474;8.616;2023-03-13T09:06:03;1.30;;;1.20;;
7719;SDS011;3902;49.474;8.616;2023-03-13T09:08:29;2.40;;;1.60;;
7719;SDS011;3902;49.474;8.616;2023-03-13T09:10:56;1.30;;;1.20;;
7719;SDS011;3902;49.474;8.616;2023-03-13T09:13:23;2.07;;;1.47;;
7719;SDS011;3902;49.474;8.616;2023-03-13T09:15:54;1.38;;;1.25;;
7719;SDS011;3902;49.474;8.616;2023-03-13T09:18:20;2.40;;;1.30;;
7719;SDS011;3902;49.474;8.616;2023-03-13T09:20:46;2.10;;;1.30;;
7719;SDS011;3902;49.474;8.616;2023-03-13T09:23:11;3.17;;;1.30;;
7719;SDS011;3902;49.474;8.616;2023-03-13T09:25:37;1.57;;;1.33;;
7719;SDS011;3902;49.474;8.616;2023-03-13T09:28:03;2.90;;;1.50;;
7719;SDS011;3902;49.474;8.616;2023-03-13T09:30:29;2.50;;;1.40;;
7719;SDS011;3902;49.474;8.616;2023-03-13T09:32:54;1.90;;;1.40;;
7719;SDS011;3902;49.474;8.616;2023-03-13T09:35:20;2.93;;;1.20;;
7719;SDS011;3902;49.474;8.616;2023-03-13T09:37:45;1.63;;;1.53;;
7719;SDS011;3902;49.474;8.616;2023-03-13T09:40:14;1.50;;;1.27;;
7719;SDS011;3902;49.474;8.616;2023-03-13T09:42:44;1.87;;;1.27;;
7719;SDS011;3902;49.474;8.616;2023-03-13T09:45:18;2.07;;;1.50;;
7719;SDS011;3902;49.474;8.616;2023-03-13T09:47:58;1.53;;;1.43;;
7719;SDS011;3902;49.474;8.616;2023-03-13T09:50:33;1.70;;;1.40;;
7719;SDS011;3902;49.474;8.616;2023-03-13T09:53:12;2.80;;;1.70;;
7719;SDS011;3902;49.474;8.616;2023-03-13T09:55:41;2.10;;;1.60;;
7719;SDS011;3902;49.474;8.616;2023-03-13T10:00:38;1.70;;;1.60;;
7719;SDS011;3902;49.474;8.616;2023-03-13T10:05:50;3.07;;;1.87;;
7719;SDS011;3902;49.474;8.616;2023-03-13T10:08:18;1.87;;;1.50;;
7719;SDS011;3902;49.474;8.616;2023-03-13T10:13:47;3.43;;;1.40;;
7719;SDS011;3902;49.474;8.616;2023-03-13T10:16:19;4.83;;;1.70;;
7719;SDS011;3902;49.474;8.616;2023-03-13T10:18:52;1.97;;;1.60;;
7719;SDS011;3902;49.474;8.616;2023-03-13T10:21:20;2.50;;;1.90;;
7719;SDS011;3902;49.474;8.616;2023-03-13T10:24:23;3.37;;;2.47;;
7719;SDS011;3902;49.474;8.616;2023-03-13T10:26:55;3.80;;;2.77;;
7719;SDS011;3902;49.474;8.616;2023-03-13T10:29:22;3.00;;;2.70;;
7719;SDS011;3902;49.474;8.616;2023-03-13T10:32:11;2.13;;;1.90;;
7719;SDS011;3902;49.474;8.616;2023-03-13T10:34:49;2.90;;;2.50;;
7719;SDS011;3902;49.474;8.616;2023-03-13T10:37:25;2.50;;;2.30;;
7719;SDS011;3902;49.474;8.616;2023-03-13T10:40:12;2.67;;;1.93;;
7719;SDS011;3902;49.474;8.616;2023-03-13T10:42:59;2.50;;;1.70;;
7719;SDS011;3902;49.474;8.616;2023-03-13T10:45:30;1.53;;;1.30;;
7719;SDS011;3902;49.474;8.616;2023-03-13T10:48:02;2.80;;;1.73;;
7719;SDS011;3902;49.474;8.616;2023-03-13T10:50:49;1.90;;;1.50;;
7719;SDS011;3902;49.474;8.616;2023-03-13T10:55:57;3.77;;;1.40;;
7719;SDS011;3902;49.474;8.616;2023-03-13T10:58:36;1.87;;;1.50;;
7719;SDS011;3902;49.474;8.616;2023-03-13T11:01:13;1.77;;;1.57;;
7719;SDS011;3902;49.474;8.616;2023-03-13T11:03:48;3.80;;;1.60;;
7719;SDS011;3902;49.474;8.616;2023-03-13T11:06:31;1.90;;;1.70;;
7719;SDS011;3902;49.474;8.616;2023-03-13T11:09:15;1.83;;;1.50;;
7719;SDS011;3902;49.474;8.616;2023-03-13T11:11:45;2.90;;;1.40;;
7719;SDS011;3902;49.474;8.616;2023-03-13T11:14:17;1.83;;;1.70;;
7719;SDS011;3902;49.474;8.616;2023-03-13T11:16:48;2.20;;;1.80;;
7719;SDS011;3902;49.474;8.616;2023-03-13T11:22:04;2.23;;;1.60;;
7719;SDS011;3902;49.474;8.616;2023-03-13T11:24:49;2.00;;;1.50;;
7719;SDS011;3902;49.474;8.616;2023-03-13T11:30:19;2.13;;;1.50;;
7719;SDS011;3902;49.474;8.616;2023-03-13T11:32:55;1.67;;;1.57;;
7719;SDS011;3902;49.474;8.616;2023-03-13T11:35:45;1.97;;;1.23;;
7719;SDS011;3902;49.474;8.616;2023-03-13T11:38:23;2.63;;;1.53;;
7719;SDS011;3902;49.474;8.616;2023-03-13T11:46:28;3.00;;;1.70;;
7719;SDS011;3902;49.474;8.616;2023-03-13T11:57:28;2.37;;;1.83;;
7719;SDS011;3902;49.474;8.616;2023-03-13T12:03:10;2.87;;;1.63;;
7719;SDS011;3902;49.474;8.616;2023-03-13T12:05:43;5.10;;;2.30;;
7719;SDS011;3902;49.474;8.616;2023-03-13T12:11:08;2.53;;;1.90;;
7719;SDS011;3902;49.474;8.616;2023-03-13T12:13:50;5.80;;;2.07;;
7719;SDS011;3902;49.474;8.616;2023-03-13T12:16:22;4.40;;;2.33;;
7719;SDS011;3902;49.474;8.616;2023-03-13T12:18:54;2.00;;;1.60;;
7719;SDS011;3902;49.474;8.616;2023-03-13T12:21:21;1.90;;;1.70;;
7719;SDS011;3902;49.474;8.616;2023-03-13T12:26:41;2.80;;;1.80;;
7719;SDS011;3902;49.474;8.616;2023-03-13T12:29:15;3.10;;;2.00;;
7719;SDS011;3902;49.474;8.616;2023-03-13T12:32:06;3.63;;;1.90;;
7719;SDS011;3902;49.474;8.616;2023-03-13T12:34:42;2.40;;;1.60;;
7719;SDS011;3902;49.474;8.616;2023-03-13T12:40:16;1.53;;;1.40;;
7719;SDS011;3902;49.474;8.616;2023-03-13T12:43:09;2.93;;;1.57;;
7719;SDS011;3902;49.474;8.616;2023-03-13T12:45:36;7.17;;;1.97;;
7719;SDS011;3902;49.474;8.616;2023-03-13T12:48:21;2.03;;;1.83;;
7719;SDS011;3902;49.474;8.616;2023-03-13T12:59:46;1.73;;;1.63;;
7719;SDS011;3902;49.474;8.616;2023-03-13T13:02:18;2.20;;;1.60;;
7719;SDS011;3902;49.474;8.616;2023-03-13T13:04:49;1.70;;;1.60;;
7719;SDS011;3902;49.474;8.616;2023-03-13T13:07:31;1.90;;;1.70;;
7719;SDS011;3902;49.474;8.616;2023-03-13T13:12:34;2.53;;;1.83;;
7719;SDS011;3902;49.474;8.616;2023-03-13T13:15:10;2.70;;;1.87;;
7719;SDS011;3902;49.474;8.616;2023-03-13T13:21:17;2.80;;;2.00;;
7719;SDS011;3902;49.474;8.616;2023-03-13T13:23:40;2.80;;;1.80;;
7719;SDS011;3902;49.474;8.616;2023-03-13T13:28:55;2.20;;;2.00;;
7719;SDS011;3902;49.474;8.616;2023-03-13T13:36:55;2.90;;;1.90;;
7719;SDS011;3902;49.474;8.616;2023-03-13T13:39:31;4.03;;;1.90;;
7719;SDS011;3902;49.474;8.616;2023-03-13T13:47:40;1.70;;;1.60;;
7719;SDS011;3902;49.474;8.616;2023-03-13T13:50:18;1.70;;;1.60;;
7719;SDS011;3902;49.474;8.616;2023-03-13T13:52:49;4.90;;;1.90;;
7719;SDS011;3902;49.474;8.616;2023-03-13T13:55:57;2.00;;;1.80;;
7719;SDS011;3902;49.474;8.616;2023-03-13T13:58:04;2.10;;;1.90;;
7719;SDS011;3902;49.474;8.616;2023-03-13T14:00:45;1.90;;;1.70;;
7719;SDS011;3902;49.474;8.616;2023-03-13T14:03:24;2.27;;;1.67;;
7719;SDS011;3902;49.474;8.616;2023-03-13T14:05:53;2.83;;;1.80;;
7719;SDS011;3902;49.474;8.616;2023-03-13T14:08:27;2.50;;;1.70;;
7719;SDS011;3902;49.474;8.616;2023-03-13T14:14:09;3.13;;;1.50;;
7719;SDS011;3902;49.474;8.616;2023-03-13T14:16:38;3.33;;;1.50;;
7719;SDS011;3902;49.474;8.616;2023-03-13T14:19:21;1.50;;;1.40;;
7719;SDS011;3902;49.474;8.616;2023-03-13T14:21:50;1.50;;;1.40;;
7719;SDS011;3902;49.474;8.616;2023-03-13T14:24:21;2.13;;;1.93;;
7719;SDS011;3902;49.474;8.616;2023-03-13T14:26:46;2.97;;;1.60;;
7719;SDS011;3902;49.474;8.616;2023-03-13T14:29:16;1.90;;;1.70;;
7719;SDS011;3902;49.474;8.616;2023-03-13T14:31:49;2.67;;;1.60;;
7719;SDS011;3902;49.474;8.616;2023-03-13T14:34:17;1.50;;;1.40;;
7719;SDS011;3902;49.474;8.616;2023-03-13T14:36:55;3.40;;;1.70;;
7719;SDS011;3902;49.474;8.616;2023-03-13T14:42:03;2.73;;;1.43;;
7719;SDS011;3902;49.474;8.616;2023-03-13T14:44:33;1.97;;;1.67;;
7719;SDS011;3902;49.474;8.616;2023-03-13T14:47:02;2.93;;;1.70;;
7719;SDS011;3902;49.474;8.616;2023-03-13T14:49:31;1.93;;;1.40;;
7719;SDS011;3902;49.474;8.616;2023-03-13T14:51:57;3.10;;;2.80;;
7719;SDS011;3902;49.474;8.616;2023-03-13T14:54:28;2.10;;;1.70;;
7719;SDS011;3902;49.474;8.616;2023-03-13T14:59:33;2.80;;;1.50;;
7719;SDS011;3902;49.474;8.616;2023-03-13T15:02:00;1.53;;;1.43;;
7719;SDS011;3902;49.474;8.616;2023-03-13T15:07:24;1.83;;;1.70;;
7719;SDS011;3902;49.474;8.616;2023-03-13T15:15:48;1.97;;;1.40;;
7719;SDS011;3902;49.474;8.616;2023-03-13T15:18:21;2.30;;;1.87;;
7719;SDS011;3902;49.474;8.616;2023-03-13T15:20:52;2.07;;;1.50;;
7719;SDS011;3902;49.474;8.616;2023-03-13T15:23:20;3.30;;;1.50;;
7719;SDS011;3902;49.474;8.616;2023-03-13T15:25:46;2.13;;;1.50;;
7719;SDS011;3902;49.474;8.616;2023-03-13T15:28:14;1.70;;;1.60;;
7719;SDS011;3902;49.474;8.616;2023-03-13T15:30:41;1.53;;;1.43;;
7719;SDS011;3902;49.474;8.616;2023-03-13T15:33:12;3.00;;;1.80;;
7719;SDS011;3902;49.474;8.616;2023-03-13T15:35:39;1.60;;;1.50;;
7719;SDS011;3902;49.474;8.616;2023-03-13T15:38:05;1.50;;;1.40;;
7719;SDS011;3902;49.474;8.616;2023-03-13T15:40:34;1.63;;;1.53;;
7719;SDS011;3902;49.474;8.616;2023-03-13T15:43:00;2.47;;;1.63;;
7719;SDS011;3902;49.474;8.616;2023-03-13T15:45:25;1.43;;;1.30;;
7719;SDS011;3902;49.474;8.616;2023-03-13T15:47:51;1.50;;;1.30;;
7719;SDS011;3902;49.474;8.616;2023-03-13T15:50:18;1.80;;;1.70;;
7719;SDS011;3902;49.474;8.616;2023-03-13T15:52:44;3.03;;;1.47;;
7719;SDS011;3902;49.474;8.616;2023-03-13T15:55:10;1.50;;;1.40;;
7719;SDS011;3902;49.474;8.616;2023-03-13T15:57:38;1.40;;;1.30;;
7719;SDS011;3902;49.474;8.616;2023-03-13T16:00:15;2.70;;;1.37;;
7719;SDS011;3902;49.474;8.616;2023-03-13T16:02:46;2.20;;;2.00;;
7719;SDS011;3902;49.474;8.616;2023-03-13T16:05:12;1.90;;;1.40;;
7719;SDS011;3902;49.474;8.616;2023-03-13T16:07:37;1.90;;;1.77;;
7719;SDS011;3902;49.474;8.616;2023-03-13T16:10:03;5.73;;;1.87;;
7719;SDS011;3902;49.474;8.616;2023-03-13T16:12:36;2.20;;;1.50;;
7719;SDS011;3902;49.474;8.616;2023-03-13T16:15:02;5.67;;;1.83;;
7719;SDS011;3902;49.474;8.616;2023-03-13T16:17:29;2.70;;;1.50;;
7719;SDS011;3902;49.474;8.616;2023-03-13T16:19:54;2.00;;;1.40;;
7719;SDS011;3902;49.474;8.616;2023-03-13T16:22:20;5.43;;;1.83;;
7719;SDS011;3902;49.474;8.616;2023-03-13T16:24:45;2.83;;;1.40;;
7719;SDS011;3902;49.474;8.616;2023-03-13T16:27:15;2.70;;;1.20;;
7719;SDS011;3902;49.474;8.616;2023-03-13T16:29:41;3.80;;;1.23;;
7719;SDS011;3902;49.474;8.616;2023-03-13T16:32:12;2.70;;;1.30;;
7719;SDS011;3902;49.474;8.616;2023-03-13T16:34:39;1.83;;;1.40;;
7719;SDS011;3902;49.474;8.616;2023-03-13T16:37:15;3.07;;;1.57;;
7719;SDS011;3902;49.474;8.616;2023-03-13T16:39:42;1.30;;;1.20;;
7719;SDS011;3902;49.474;8.616;2023-03-13T16:42:09;2.07;;;1.47;;
7719;SDS011;3902;49.474;8.616;2023-03-13T16:44:35;1.07;;;0.97;;
7719;SDS011;3902;49.474;8.616;2023-03-13T16:47:01;1.33;;;1.23;;
7719;SDS011;3902;49.474;8.616;2023-03-13T16:49:27;1.40;;;1.30;;
7719;SDS011;3902;49.474;8.616;2023-03-13T16:51:52;1.17;;;1.00;;
7719;SDS011;3902;49.474;8.616;2023-03-13T16:54:18;1.43;;;1.23;;
7719;SDS011;3902;49.474;8.616;2023-03-13T16:56:43;2.00;;;1.30;;